Christman Field Latest Observations
Date Time
MST
Temp
°F
RH
%
DewPt
°F
Wind
mph
Dir
°
Gust
mph
Dir
°
Press
in Hg
Solar
W/m^2
Prec
in
2019-10-22 04:15 29.8 67.3 20.3 2.4 173 4.7 192 24.919 0.0 0.00
2019-10-22 04:10 31.1 62.6 19.8 4.6 191 5.5 186 24.919 0.0 0.00
2019-10-22 04:05 30.7 62.1 19.3 2.4 178 4.3 185 24.917 0.0 0.00
2019-10-22 04:00 31.7 60.5 19.6 1.0 273 2.6 274 24.919 0.0 0.00
2019-10-22 03:55 31.7 58.2 18.7 0.0 243 0.0 243 24.918 0.0 0.00
2019-10-22 03:50 31.5 61.2 19.7 0.5 243 2.8 262 24.920 0.0 0.00
2019-10-22 03:45 31.9 59.4 19.3 1.6 261 3.5 16 24.921 0.0 0.00
2019-10-22 03:40 30.5 57.7 17.4 2.4 15 3.5 354 24.922 0.0 0.00
2019-10-22 03:35 31.7 58.4 18.7 1.9 323 3.9 305 24.926 0.0 0.00
2019-10-22 03:30 33.4 57.4 20.0 2.0 305 4.1 48 24.927 0.0 0.00
2019-10-22 03:25 36.0 49.5 18.9 4.1 48 4.6 45 24.930 0.0 0.00
2019-10-22 03:20 34.7 50.7 18.2 3.0 53 3.6 87 24.929 0.0 0.00
2019-10-22 03:15 34.2 54.7 19.6 1.0 97 2.9 97 24.930 0.0 0.00
2019-10-22 03:10 33.8 55.5 19.6 0.8 105 2.5 105 24.932 0.0 0.00
2019-10-22 03:05 33.0 57.6 19.6 1.3 161 3.1 181 24.934 0.0 0.00
2019-10-22 03:00 34.0 53.3 18.8 0.6 169 2.5 169 24.934 0.0 0.00
2019-10-22 02:55 34.4 53.8 19.4 0.0 109 0.0 109 24.934 0.0 0.00
2019-10-22 02:50 35.6 50.0 18.7 0.0 109 0.0 199 24.939 0.0 0.00
2019-10-22 02:45 36.7 47.1 18.4 0.0 199 0.0 199 24.943 0.0 0.00
2019-10-22 02:40 37.4 46.5 18.7 0.0 199 0.0 209 24.944 0.0 0.00
2019-10-22 02:35 36.6 47.9 18.7 1.3 216 3.5 227 24.947 0.0 0.00
2019-10-22 02:30 36.7 46.2 17.9 1.8 262 3.5 283 24.951 0.0 0.00
2019-10-22 02:25 37.4 45.6 18.3 4.0 265 5.7 267 24.954 0.0 0.00
2019-10-22 02:20 39.1 42.6 18.3 5.6 272 7.2 292 24.954 0.0 0.00
2019-10-22 02:15 39.5 41.9 18.3 6.2 313 7.6 290 24.954 0.0 0.00
2019-10-22 02:10 40.0 41.1 18.3 6.2 305 8.8 292 24.953 0.0 0.00
2019-10-22 02:05 40.3 40.2 18.0 5.8 270 8.3 289 24.956 0.0 0.00
2019-10-22 02:00 40.6 40.4 18.4 7.9 290 11.0 278 24.956 0.0 0.00
2019-10-22 01:55 40.9 39.4 18.1 10.5 272 14.2 275 24.956 0.0 0.00
2019-10-22 01:50 39.9 40.8 18.0 9.3 282 12.7 259 24.959 0.0 0.00
CIRA

Cooperative Institute for Research in the Atmosphere

Climate and Weather Processes


Global and regional climate sensitivity is defined primarily by feedbacks to the planets’ hydrological cycle that in turn alter the planet’s energy balance. These feedbacks involve processes that are ‘fast’ such as cloud and precipitation processes, evolving within the ‘weather envelope’, or slow such as changes related to land cover, carbon exchanges or ice sheet extent that evolve within the ‘climate envelope’. Research within CIRA and in conjunction with the ATS faculty has made important contributions to the observing, understanding and modeling of important processes key to improving numerical weather/climate prediction.

 

The severe decrease in Arctic sea ice in 2007 underscores the delicate connections between changing weather and climate trends (e.g. Kay et al., 2008). Shifts in weather processes, such as the drying of the atmosphere and the clearing of Arctic clouds (perhaps associated with decadal oscillations), accelerated the sea ice loss and amplified the slower climate forcing effects of sea ice. As another example, predictions of long-term trends in air quality must consider not only emissions projections but also the affect that climate change will have on regional to-global scale weather patterns (e.g., impacting transport, trapping inversions, etc.). In acknowledgement of the importance of the weather-climate connection, the Department of Energy’s Atmospheric Radiation Measurement and Climate Change Prediction Programs now run a climate model in NWP mode.

 

Research conducted under this theme employs a combination of numerical models and environmental data to understand processes that dictate changes on weather and climate timescales (minutes to months to years) and the two-way interactions between weather systems and regional and global climate. Research related to the hydrologic cycle, carbon exchanges and turbulent flux exchanges all have the ability to influence both weather and climate and thus form the basis of this research theme. Also included are those studies that look at weather systems from a process perspective and the development of data sets intended for climate trend analysis.